createdAt,value
2023-05-02T00:00:21.093Z,97707.53
2023-05-02T00:03:23.735Z,97705.88
2023-05-02T00:06:26.125Z,97717.53
2023-05-02T00:09:29.302Z,97710.47
2023-05-02T00:12:31.366Z,97709.06
2023-05-02T00:15:33.376Z,97714.03
2023-05-02T00:18:35.514Z,97717.56
2023-05-02T00:21:37.575Z,97709.03
2023-05-02T00:24:39.579Z,97715.72
2023-05-02T00:27:41.713Z,97705.34
2023-05-02T00:30:47.279Z,97701.91
2023-05-02T00:33:49.428Z,97704.31
2023-05-02T00:36:51.416Z,97706.84
2023-05-02T00:39:53.426Z,97704.84
2023-05-02T00:42:55.569Z,97712.00
2023-05-02T00:45:57.853Z,97714.09
2023-05-02T00:49:01.366Z,97674.19
2023-05-02T00:52:04.012Z,97709.78
2023-05-02T00:55:06.527Z,97707.38
2023-05-02T00:58:14.326Z,97712.69
2023-05-02T01:01:49.357Z,97712.91
2023-05-02T01:05:10.637Z,97724.31
2023-05-02T01:09:11.651Z,97719.25
2023-05-02T01:12:31.515Z,97705.72
2023-05-02T01:15:34.935Z,97716.38
2023-05-02T01:18:41.032Z,97715.09
2023-05-02T01:21:43.515Z,97721.13
2023-05-02T01:24:55.185Z,97725.78
2023-05-02T01:27:59.803Z,97727.53
2023-05-02T01:31:04.966Z,97721.31
2023-05-02T01:34:10.514Z,97727.56
2023-05-02T01:37:15.253Z,97728.75
2023-05-02T01:40:20.749Z,97728.88
2023-05-02T01:43:24.813Z,97730.06
2023-05-02T01:46:30.683Z,97728.81
2023-05-02T01:49:35.370Z,97726.72
2023-05-02T01:52:40.337Z,97730.56
2023-05-02T01:55:44.981Z,97734.94
2023-05-02T01:58:49.520Z,97698.66
2023-05-02T02:01:53.032Z,97737.28
2023-05-02T02:04:58.020Z,97719.25
2023-05-02T02:08:00.141Z,97729.44
2023-05-02T02:11:10.385Z,97732.44
2023-05-02T02:14:21.702Z,97734.75
2023-05-02T02:17:41.785Z,97733.03
2023-05-02T02:20:47.114Z,97733.75
2023-05-02T02:23:52.243Z,97718.16
2023-05-02T02:26:54.469Z,97725.66
2023-05-02T02:29:56.549Z,97723.00
2023-05-02T02:32:58.752Z,97725.66
2023-05-02T02:36:17.202Z,97722.63
2023-05-02T02:39:27.293Z,97738.94
2023-05-02T02:42:58.274Z,97734.22
2023-05-02T02:46:44.528Z,97736.03
2023-05-02T02:50:07.729Z,97732.25
2023-05-02T02:53:18.906Z,97740.31
2023-05-02T02:56:30.646Z,97737.44
2023-05-02T02:59:35.594Z,97739.38
2023-05-02T03:02:38.270Z,97749.66
2023-05-02T03:05:40.462Z,97744.91
2023-05-02T03:08:44.040Z,97756.94
2023-05-02T03:11:50.761Z,97756.22
2023-05-02T03:14:55.853Z,97762.47
2023-05-02T03:17:58.170Z,97763.63
2023-05-02T03:21:01.287Z,97759.91
2023-05-02T03:24:04.929Z,97766.03
2023-05-02T03:27:07.366Z,97768.69
2023-05-02T03:30:15.240Z,97768.06
2023-05-02T03:33:17.321Z,97766.63
2023-05-02T03:36:21.386Z,97770.94
2023-05-02T03:39:23.733Z,97757.75
2023-05-02T03:42:26.263Z,97772.78
2023-05-02T03:45:28.429Z,97775.47
2023-05-02T03:48:31.966Z,97774.88
2023-05-02T03:51:34.507Z,97768.38
2023-05-02T03:54:36.676Z,97780.66
2023-05-02T03:57:39.467Z,97796.63
2023-05-02T04:00:41.610Z,97790.59
2023-05-02T04:03:44.608Z,97793.03
2023-05-02T04:06:48.203Z,97795.84
2023-05-02T04:09:52.093Z,97801.47
2023-05-02T04:12:54.254Z,97806.16
2023-05-02T04:15:57.174Z,97809.47
2023-05-02T04:19:03.285Z,97811.22
2023-05-02T04:22:05.317Z,97816.94
2023-05-02T04:25:11.724Z,97816.97
2023-05-02T04:28:15.929Z,97825.16
2023-05-02T04:31:18.582Z,97823.53
2023-05-02T04:34:22.183Z,97821.78
2023-05-02T04:37:24.445Z,97830.91
2023-05-02T04:40:26.529Z,97828.31
2023-05-02T04:43:35.579Z,97833.75
2023-05-02T04:46:38.409Z,97835.75
2023-05-02T04:49:41.150Z,97839.25
2023-05-02T04:52:43.271Z,97843.34
2023-05-02T04:55:45.368Z,97840.69
2023-05-02T04:58:47.443Z,97848.47
2023-05-02T05:01:49.589Z,97849.09
2023-05-02T05:04:53.028Z,97851.59
2023-05-02T05:07:55.208Z,97854.41
2023-05-02T05:10:59.334Z,97854.56
2023-05-02T05:14:01.406Z,97860.09
2023-05-02T05:17:04.067Z,97859.25
2023-05-02T05:20:09.579Z,97853.50
2023-05-02T05:23:13.204Z,97859.72
2023-05-02T05:26:17.078Z,97863.13
2023-05-02T05:29:22.660Z,97856.34
2023-05-02T05:32:26.225Z,97862.72
2023-05-02T05:35:28.912Z,97868.22
2023-05-02T05:38:33.927Z,97861.25
2023-05-02T05:41:35.992Z,97869.41
2023-05-02T05:44:41.286Z,97876.34
2023-05-02T05:47:44.143Z,97874.22
2023-05-02T05:50:46.747Z,97876.56
2023-05-02T05:53:48.748Z,97881.47
2023-05-02T05:56:51.568Z,97884.53
2023-05-02T05:59:55.087Z,97887.19
2023-05-02T06:02:57.549Z,97882.28
2023-05-02T06:06:06.109Z,97899.81
2023-05-02T06:09:08.306Z,97901.41
2023-05-02T06:12:11.806Z,97890.25
2023-05-02T06:15:14.902Z,97877.19
2023-05-02T06:18:17.513Z,97891.50
2023-05-02T06:21:19.716Z,97892.66
2023-05-02T06:24:21.762Z,97899.16
2023-05-02T06:27:23.715Z,97899.44
2023-05-02T06:30:25.766Z,97903.13
2023-05-02T06:33:28.655Z,97902.13
2023-05-02T06:36:31.807Z,97914.75
2023-05-02T06:39:34.266Z,97915.13
2023-05-02T06:42:36.184Z,97915.16
2023-05-02T06:45:39.021Z,97929.13
2023-05-02T06:48:41.023Z,97926.81
2023-05-02T06:51:43.556Z,97898.31
2023-05-02T06:54:45.765Z,97934.03
2023-05-02T06:57:49.627Z,97935.53
2023-05-02T07:00:51.892Z,97938.97
2023-05-02T07:03:54.722Z,97939.19
2023-05-02T07:06:56.804Z,97936.63
2023-05-02T07:09:59.074Z,97942.03
2023-05-02T07:13:01.201Z,97934.25
2023-05-02T07:16:03.294Z,97942.78
2023-05-02T07:19:06.929Z,97948.16
2023-05-02T07:22:09.103Z,97940.28
2023-05-02T07:25:11.405Z,97947.09
2023-05-02T07:28:13.499Z,97947.22
2023-05-02T07:31:17.627Z,97924.03
2023-05-02T07:34:20.852Z,97934.28
2023-05-02T07:37:23.200Z,97936.06
2023-05-02T07:40:25.453Z,97962.66
2023-05-02T07:43:28.209Z,97968.94
2023-05-02T07:46:30.333Z,97981.38
2023-05-02T07:49:32.483Z,97986.81
2023-05-02T07:52:35.032Z,97986.41
2023-05-02T07:55:37.076Z,97984.75
2023-05-02T07:58:39.162Z,97974.53
2023-05-02T08:01:41.784Z,97993.28
2023-05-02T08:04:43.812Z,97991.66
2023-05-02T08:07:47.008Z,97987.44
2023-05-02T08:10:51.469Z,97982.91
2023-05-02T08:13:53.649Z,97985.81
2023-05-02T08:16:55.660Z,97983.28
2023-05-02T08:19:58.294Z,97993.84
2023-05-02T08:23:00.671Z,97981.50
2023-05-02T08:26:02.700Z,97987.41
2023-05-02T08:29:04.800Z,97989.97
2023-05-02T08:32:06.921Z,97990.31
2023-05-02T08:35:09.301Z,97997.00
2023-05-02T08:38:11.457Z,97992.41
2023-05-02T08:41:19.768Z,97980.09
2023-05-02T08:44:21.730Z,97987.69
2023-05-02T08:47:26.342Z,97992.25
2023-05-02T08:50:30.399Z,98004.94
2023-05-02T08:53:34.614Z,97999.47
2023-05-02T08:56:37.759Z,97993.00
2023-05-02T08:59:39.778Z,97998.94
2023-05-02T09:02:50.568Z,97998.03
2023-05-02T09:06:13.688Z,97972.94
2023-05-02T09:09:17.191Z,97993.16
2023-05-02T09:12:27.164Z,97997.44
2023-05-02T09:15:29.209Z,97993.19
2023-05-02T09:18:52.960Z,97976.00
2023-05-02T09:22:01.512Z,97990.41
2023-05-02T09:25:06.430Z,97994.59
2023-05-02T09:28:08.900Z,97996.94
2023-05-02T09:31:13.554Z,98015.16
2023-05-02T09:34:17.583Z,98003.53
2023-05-02T09:37:34.933Z,98027.59
2023-05-02T09:40:37.975Z,98037.97
2023-05-02T09:43:41.249Z,98039.16
2023-05-02T09:46:54.209Z,98029.56
2023-05-02T09:49:56.445Z,98031.13
2023-05-02T09:53:02.938Z,98035.72
2023-05-02T09:56:05.562Z,98036.50
2023-05-02T09:59:16.987Z,98042.34
2023-05-02T10:02:21.997Z,98042.00
2023-05-02T10:05:24.946Z,98061.22
2023-05-02T10:08:28.847Z,98047.78
2023-05-02T10:11:32.565Z,98063.91
2023-05-02T10:14:43.811Z,98057.97
2023-05-02T10:17:49.504Z,98053.13
2023-05-02T10:21:04.080Z,98061.00
2023-05-02T10:24:06.993Z,98063.28
2023-05-02T10:27:09.135Z,98063.19
2023-05-02T10:30:13.714Z,98040.13
2023-05-02T10:33:17.263Z,98066.47
2023-05-02T10:36:23.883Z,98069.84
2023-05-02T10:39:27.272Z,98066.31
2023-05-02T10:42:30.665Z,98060.03
2023-05-02T10:45:36.981Z,98058.59
2023-05-02T10:48:39.048Z,98059.53
2023-05-02T10:51:42.625Z,98066.06
2023-05-02T10:54:44.630Z,98056.63
2023-05-02T10:58:09.528Z,98069.59
2023-05-02T11:01:29.917Z,98064.59
2023-05-02T11:05:09.072Z,98065.13
2023-05-02T11:08:34.105Z,98059.88
2023-05-02T11:11:43.800Z,98071.59
2023-05-02T11:14:47.874Z,98068.50
2023-05-02T11:18:01.852Z,98063.78
2023-05-02T11:21:29.084Z,98068.78
2023-05-02T11:24:41.792Z,98061.56
2023-05-02T11:27:45.926Z,98060.25
2023-05-02T11:30:48.863Z,98060.56
2023-05-02T11:34:04.774Z,98059.69
2023-05-02T11:37:14.755Z,98066.16
2023-05-02T11:40:16.907Z,98065.38
2023-05-02T11:43:21.867Z,98066.44
2023-05-02T11:46:23.943Z,98058.69
2023-05-02T11:49:26.082Z,98052.38
2023-05-02T11:52:28.219Z,98016.91
2023-05-02T11:55:30.238Z,98060.84
2023-05-02T11:58:34.041Z,98055.66
2023-05-02T12:01:36.890Z,98061.00
2023-05-02T12:04:45.197Z,98069.84
2023-05-02T12:07:49.520Z,98064.66
2023-05-02T12:10:52.809Z,98056.94
2023-05-02T12:13:55.120Z,98067.53
2023-05-02T12:16:58.984Z,98074.75
2023-05-02T12:20:03.517Z,98071.28
2023-05-02T12:23:10.394Z,98064.31
2023-05-02T12:26:25.662Z,98073.94
2023-05-02T12:29:41.566Z,98077.13
2023-05-02T12:32:45.772Z,98070.25
2023-05-02T12:35:48.252Z,98070.75
2023-05-02T12:38:57.288Z,98078.66
2023-05-02T12:41:59.332Z,98070.78
2023-05-02T12:45:01.763Z,98079.81
2023-05-02T12:48:19.241Z,98073.91
2023-05-02T12:51:23.873Z,98087.78
2023-05-02T12:54:26.867Z,98082.00
2023-05-02T12:57:30.345Z,98087.09
2023-05-02T13:00:33.738Z,98091.84
2023-05-02T13:03:36.982Z,98093.59
2023-05-02T13:06:39.371Z,98089.34
2023-05-02T13:09:41.453Z,98091.97
2023-05-02T13:12:45.089Z,98093.09
2023-05-02T13:15:47.608Z,98052.91
2023-05-02T13:18:49.714Z,98089.66
2023-05-02T13:21:51.719Z,98090.09
2023-05-02T13:24:54.350Z,98093.63
2023-05-02T13:27:56.596Z,98093.59
2023-05-02T13:30:58.625Z,98081.72
2023-05-02T13:34:00.661Z,98089.16
2023-05-02T13:37:02.649Z,98093.53
2023-05-02T13:40:05.329Z,98095.06
2023-05-02T13:43:07.709Z,98094.50
2023-05-02T13:46:09.734Z,98086.47
2023-05-02T13:49:11.704Z,98084.66
2023-05-02T13:52:13.878Z,98095.66
2023-05-02T13:55:16.176Z,98087.28
2023-05-02T13:58:18.698Z,98096.66
2023-05-02T14:01:20.801Z,98093.25
2023-05-02T14:04:23.621Z,98105.59
2023-05-02T14:07:25.942Z,98106.63
2023-05-02T14:10:27.909Z,98113.56
2023-05-02T14:13:29.950Z,98113.00
2023-05-02T14:16:32.061Z,98118.94
2023-05-02T14:19:34.273Z,98119.75
2023-05-02T14:22:36.314Z,98118.66
2023-05-02T14:25:38.635Z,98125.63
2023-05-02T14:28:41.256Z,98122.41
2023-05-02T14:31:43.392Z,98131.72
2023-05-02T14:34:45.498Z,98128.78
2023-05-02T14:37:47.547Z,98125.19
2023-05-02T14:40:49.629Z,98123.34
2023-05-02T14:43:53.291Z,98130.75
2023-05-02T14:46:56.536Z,98119.44
2023-05-02T14:49:58.799Z,98121.78
2023-05-02T14:53:00.802Z,98119.41
2023-05-02T14:56:02.777Z,98117.66
2023-05-02T14:59:04.830Z,98112.50
2023-05-02T15:02:07.840Z,98115.41
2023-05-02T15:05:12.537Z,98117.03
2023-05-02T15:08:15.150Z,98113.63
2023-05-02T15:11:17.148Z,98111.69
2023-05-02T15:14:19.344Z,98118.09
2023-05-02T15:17:21.704Z,98114.06
2023-05-02T15:20:23.756Z,98117.28
2023-05-02T15:23:25.656Z,98111.44
2023-05-02T15:26:27.732Z,98118.16
2023-05-02T15:29:29.819Z,98113.06
2023-05-02T15:32:31.897Z,98118.47
2023-05-02T15:35:33.949Z,98120.81
2023-05-02T15:38:39.556Z,98119.34
2023-05-02T15:41:42.283Z,98126.69
2023-05-02T15:44:44.348Z,98125.81
2023-05-02T15:47:47.152Z,98119.28
2023-05-02T15:50:49.787Z,98122.06
2023-05-02T15:53:52.740Z,98115.59
2023-05-02T15:56:54.929Z,98118.81
2023-05-02T15:59:56.930Z,98112.38
2023-05-02T16:02:58.902Z,98107.16
2023-05-02T16:06:01.346Z,98112.19
2023-05-02T16:09:04.333Z,98117.13
2023-05-02T16:12:07.449Z,98118.44
2023-05-02T16:15:09.729Z,98102.88
2023-05-02T16:18:12.153Z,98112.94
2023-05-02T16:21:15.111Z,98110.41
2023-05-02T16:24:17.132Z,98106.13
2023-05-02T16:27:19.122Z,98109.63
2023-05-02T16:30:22.086Z,98100.53
2023-05-02T16:33:24.154Z,98103.22
2023-05-02T16:36:26.859Z,98108.00
2023-05-02T16:39:28.903Z,98099.91
2023-05-02T16:42:31.223Z,98109.78
2023-05-02T16:45:33.755Z,98097.50
2023-05-02T16:48:35.960Z,98107.59
2023-05-02T16:51:37.946Z,98102.91
2023-05-02T16:54:39.994Z,98114.38
2023-05-02T16:57:42.743Z,98115.22
2023-05-02T17:00:44.847Z,98119.00
2023-05-02T17:03:46.968Z,98119.00
2023-05-02T17:06:49.091Z,98125.50
2023-05-02T17:09:51.314Z,98134.97
2023-05-02T17:12:56.127Z,98139.97
2023-05-02T17:15:58.986Z,98152.13
2023-05-02T17:19:01.044Z,98164.19
2023-05-02T17:22:05.401Z,98166.13
2023-05-02T17:25:08.121Z,98185.63
2023-05-02T17:28:10.497Z,98186.34
2023-05-02T17:31:13.354Z,98203.81
2023-05-02T17:34:15.422Z,98199.44
2023-05-02T17:37:17.474Z,98206.19
2023-05-02T17:40:19.754Z,98211.78
2023-05-02T17:43:22.089Z,98203.19
2023-05-02T17:46:24.203Z,98206.69
2023-05-02T17:49:26.231Z,98214.13
2023-05-02T17:52:29.364Z,98175.16
2023-05-02T17:55:33.236Z,98211.34
2023-05-02T17:58:36.637Z,98208.13
2023-05-02T18:01:39.574Z,98212.31
2023-05-02T18:04:45.292Z,98210.91
2023-05-02T18:07:47.659Z,98216.13
2023-05-02T18:10:49.916Z,98215.44
2023-05-02T18:13:52.561Z,98219.88
2023-05-02T18:16:55.275Z,98208.50
2023-05-02T18:19:58.383Z,98223.94
2023-05-02T18:23:01.694Z,98224.09
2023-05-02T18:26:04.453Z,98231.97
2023-05-02T18:29:07.308Z,98230.81
2023-05-02T18:32:11.362Z,98225.59
2023-05-02T18:35:13.709Z,98217.38
2023-05-02T18:38:17.642Z,98239.41
2023-05-02T18:41:20.066Z,98242.75
2023-05-02T18:44:22.327Z,98248.47
2023-05-02T18:47:25.304Z,98259.81
2023-05-02T18:50:28.162Z,98264.81
2023-05-02T18:53:30.770Z,98252.28
2023-05-02T18:56:32.960Z,98274.06
2023-05-02T18:59:35.635Z,98270.81
2023-05-02T19:02:38.036Z,98286.47
2023-05-02T19:05:41.668Z,98291.19
2023-05-02T19:08:46.602Z,98295.50
2023-05-02T19:11:49.031Z,98305.94
2023-05-02T19:14:52.010Z,98308.25
2023-05-02T19:17:55.766Z,98312.44
2023-05-02T19:20:58.577Z,98288.63
2023-05-02T19:24:01.255Z,98295.22
2023-05-02T19:27:07.462Z,98313.22
2023-05-02T19:30:10.543Z,98308.72
2023-05-02T19:33:13.222Z,98316.91
2023-05-02T19:36:16.222Z,98314.50
2023-05-02T19:39:18.941Z,98315.97
2023-05-02T19:42:21.550Z,98314.59
2023-05-02T19:45:24.738Z,98316.09
2023-05-02T19:48:28.181Z,98315.97
2023-05-02T19:51:30.940Z,98319.69
2023-05-02T19:54:33.704Z,98308.41
2023-05-02T19:57:36.026Z,98317.44
2023-05-02T20:00:38.398Z,98325.06
2023-05-02T20:03:41.682Z,98314.06
2023-05-02T20:06:45.053Z,98320.44
2023-05-02T20:09:47.208Z,98324.38
2023-05-02T20:12:49.264Z,98308.56
2023-05-02T20:15:53.026Z,98322.47
2023-05-02T20:18:55.145Z,98333.03
2023-05-02T20:21:57.269Z,98333.28
2023-05-02T20:24:59.303Z,98333.28
2023-05-02T20:28:01.582Z,98333.47
2023-05-02T20:31:04.445Z,98331.28
2023-05-02T20:34:06.953Z,98337.63
2023-05-02T20:37:10.538Z,98335.88
2023-05-02T20:40:13.358Z,98341.34
2023-05-02T20:43:19.022Z,98340.75
2023-05-02T20:46:21.460Z,98343.44
2023-05-02T20:49:23.601Z,98348.75
2023-05-02T20:52:25.739Z,98341.81
2023-05-02T20:55:27.937Z,98350.00
2023-05-02T20:58:30.009Z,98344.91
2023-05-02T21:01:33.842Z,98345.34
2023-05-02T21:04:35.963Z,98353.94
2023-05-02T21:07:40.607Z,98353.34
2023-05-02T21:10:42.675Z,98344.53
2023-05-02T21:13:44.822Z,98350.09
2023-05-02T21:16:47.100Z,98329.41
2023-05-02T21:19:49.450Z,98353.81
2023-05-02T21:22:51.699Z,98355.28
2023-05-02T21:25:53.794Z,98349.16
2023-05-02T21:28:55.920Z,98351.81
2023-05-02T21:31:58.024Z,98350.38
2023-05-02T21:35:00.282Z,98347.97
2023-05-02T21:38:02.821Z,98323.53
2023-05-02T21:41:05.767Z,98319.91
2023-05-02T21:44:11.628Z,98349.44
2023-05-02T21:47:13.790Z,98346.78
2023-05-02T21:50:15.965Z,98337.41
2023-05-02T21:53:18.061Z,98345.97
2023-05-02T21:56:20.189Z,98346.78
2023-05-02T21:59:22.283Z,98318.97
2023-05-02T22:02:24.383Z,98359.84
2023-05-02T22:05:26.746Z,98348.59
2023-05-02T22:08:29.075Z,98366.69
2023-05-02T22:11:32.462Z,98366.03
2023-05-02T22:14:44.645Z,98365.84
2023-05-02T22:17:48.774Z,98359.34
2023-05-02T22:20:50.948Z,98355.25
2023-05-02T22:23:53.498Z,98352.59
2023-05-02T22:26:58.697Z,98353.19
2023-05-02T22:30:00.994Z,98350.97
2023-05-02T22:33:03.720Z,98346.69
2023-05-02T22:36:05.940Z,98347.50
2023-05-02T22:39:13.024Z,98353.88
2023-05-02T22:42:15.173Z,98313.03
2023-05-02T22:45:17.329Z,98348.00
2023-05-02T22:48:19.371Z,98348.81
2023-05-02T22:51:21.582Z,98348.00
2023-05-02T22:54:24.335Z,98350.53
2023-05-02T22:57:27.055Z,98352.16
2023-05-02T23:00:29.100Z,98354.44
2023-05-02T23:03:31.552Z,98357.31
2023-05-02T23:06:33.717Z,98325.81
2023-05-02T23:09:35.805Z,98348.16
2023-05-02T23:12:39.310Z,98353.69
2023-05-02T23:15:41.602Z,98357.41
2023-05-02T23:18:43.779Z,98357.59
2023-05-02T23:21:46.252Z,98352.50
2023-05-02T23:24:48.561Z,98349.63
2023-05-02T23:27:51.471Z,98345.72
2023-05-02T23:30:53.961Z,98344.91
2023-05-02T23:33:56.300Z,98345.09
2023-05-02T23:36:58.398Z,98345.41
2023-05-02T23:40:01.250Z,98307.34
2023-05-02T23:43:03.794Z,98336.03
2023-05-02T23:46:06.519Z,98340.97
2023-05-02T23:49:08.652Z,98336.91
2023-05-02T23:52:11.125Z,98332.03
2023-05-02T23:55:13.224Z,98337.59
2023-05-02T23:58:15.191Z,98324.78
